createdAt,value
2017-09-19T00:02:25.691Z,36.30
2017-09-19T00:04:53.174Z,35.35
2017-09-19T00:07:20.655Z,35.40
2017-09-19T00:09:48.145Z,34.28
2017-09-19T00:12:15.622Z,35.92
2017-09-19T00:14:43.883Z,34.15
2017-09-19T00:17:11.375Z,35.40
2017-09-19T00:19:38.838Z,35.92
2017-09-19T00:22:06.332Z,36.05
2017-09-19T00:24:33.811Z,36.22
2017-09-19T00:27:01.303Z,33.85
2017-09-19T00:29:28.775Z,37.15
2017-09-19T00:31:56.589Z,35.55
2017-09-19T00:34:24.055Z,39.47
2017-09-19T00:36:51.539Z,39.03
2017-09-19T00:39:19.001Z,39.30
2017-09-19T00:41:46.483Z,39.13
2017-09-19T00:44:13.954Z,37.03
2017-09-19T00:46:41.463Z,40.40
2017-09-19T00:49:08.931Z,36.58
2017-09-19T00:51:36.410Z,38.90
2017-09-19T00:54:03.875Z,36.25
2017-09-19T00:56:31.363Z,39.60
2017-09-19T00:58:58.842Z,39.47
2017-09-19T01:01:26.330Z,38.30
2017-09-19T01:03:53.814Z,39.83
2017-09-19T01:06:22.121Z,39.33
2017-09-19T01:08:49.606Z,39.47
2017-09-19T01:11:17.083Z,42.15
2017-09-19T01:13:44.569Z,38.25
2017-09-19T01:16:12.047Z,43.10
2017-09-19T01:18:39.546Z,42.45
2017-09-19T01:21:07.387Z,41.17
2017-09-19T01:23:35.710Z,37.53
2017-09-19T01:26:03.179Z,36.13
2017-09-19T01:28:30.675Z,38.95
2017-09-19T01:30:58.154Z,37.67
2017-09-19T01:33:25.635Z,37.97
2017-09-19T01:35:53.110Z,38.85
2017-09-19T01:38:20.604Z,38.80
2017-09-19T01:40:48.079Z,36.00
2017-09-19T01:43:15.611Z,34.45
2017-09-19T01:45:43.094Z,38.53
2017-09-19T01:48:10.568Z,38.83
2017-09-19T01:50:38.062Z,37.92
2017-09-19T01:53:05.531Z,37.97
2017-09-19T01:55:33.015Z,38.28
2017-09-19T01:58:00.479Z,39.08
2017-09-19T02:00:27.996Z,37.80
2017-09-19T02:02:55.458Z,34.30
2017-09-19T02:05:22.951Z,37.30
2017-09-19T02:07:50.423Z,36.05
2017-09-19T02:10:17.911Z,37.42
2017-09-19T02:12:46.144Z,38.65
2017-09-19T02:15:14.398Z,37.30
2017-09-19T02:17:41.883Z,38.97
2017-09-19T02:20:09.365Z,38.60
2017-09-19T02:22:36.826Z,35.35
2017-09-19T02:25:05.095Z,37.58
2017-09-19T02:27:32.559Z,36.85
2017-09-19T02:30:00.820Z,36.08
2017-09-19T02:32:28.293Z,38.70
2017-09-19T02:34:55.771Z,35.53
2017-09-19T02:37:35.165Z,35.58
2017-09-19T02:40:14.449Z,36.92
2017-09-19T02:42:50.779Z,36.33
2017-09-19T02:45:18.269Z,37.30
2017-09-19T02:47:45.735Z,37.50
2017-09-19T02:50:13.215Z,38.58
2017-09-19T02:52:40.691Z,37.55
2017-09-19T02:55:08.178Z,34.67
2017-09-19T02:57:36.420Z,38.50
2017-09-19T03:00:03.903Z,39.33
2017-09-19T03:02:43.826Z,36.28
2017-09-19T03:05:23.926Z,35.28
2017-09-19T03:07:53.076Z,34.95
2017-09-19T03:10:20.565Z,36.70
2017-09-19T03:12:48.808Z,35.75
2017-09-19T03:15:16.290Z,35.47
2017-09-19T03:17:44.535Z,37.00
2017-09-19T03:20:12.031Z,35.05
2017-09-19T03:22:39.503Z,36.25
2017-09-19T03:25:06.991Z,37.47
2017-09-19T03:27:34.462Z,38.90
2017-09-19T03:30:01.986Z,36.90
2017-09-19T03:32:29.564Z,38.35
2017-09-19T03:34:57.054Z,34.92
2017-09-19T03:37:24.542Z,37.35
2017-09-19T03:39:52.772Z,36.58
2017-09-19T03:42:20.263Z,34.47
2017-09-19T03:44:47.726Z,37.42
2017-09-19T03:47:15.982Z,39.55
2017-09-19T03:49:43.446Z,37.75
2017-09-19T03:52:10.959Z,41.45
2017-09-19T03:54:38.419Z,38.97
2017-09-19T03:57:05.882Z,40.67
2017-09-19T03:59:33.379Z,40.00
2017-09-19T04:02:00.886Z,39.63
2017-09-19T04:04:28.395Z,41.70
2017-09-19T04:06:55.880Z,39.55
2017-09-19T04:09:24.110Z,43.03
2017-09-19T04:11:52.349Z,36.55
2017-09-19T04:14:19.843Z,40.67
2017-09-19T04:16:47.316Z,39.92
2017-09-19T04:19:14.809Z,42.55
2017-09-19T04:21:42.279Z,39.92
2017-09-19T04:24:09.790Z,39.03
2017-09-19T04:26:37.258Z,38.22
2017-09-19T04:29:05.532Z,38.38
2017-09-19T04:31:33.792Z,39.90
2017-09-19T04:34:01.283Z,38.92
2017-09-19T04:36:29.516Z,40.63
2017-09-19T04:38:57.007Z,38.05
2017-09-19T04:41:26.166Z,41.92
2017-09-19T04:43:53.639Z,39.15
2017-09-19T04:46:21.127Z,41.83
2017-09-19T04:48:48.811Z,38.83
2017-09-19T04:51:16.298Z,34.90
2017-09-19T04:53:43.763Z,42.72
2017-09-19T04:56:11.259Z,36.85
2017-09-19T04:58:38.723Z,36.53
2017-09-19T05:01:06.971Z,39.05
2017-09-19T05:03:34.448Z,38.47
2017-09-19T05:06:02.717Z,38.83
2017-09-19T05:08:30.190Z,40.40
2017-09-19T05:10:57.679Z,41.83
2017-09-19T05:13:25.151Z,37.75
2017-09-19T05:15:52.669Z,38.65
2017-09-19T05:18:20.177Z,38.67
2017-09-19T05:20:48.440Z,43.75
2017-09-19T05:23:15.910Z,41.75
2017-09-19T05:25:43.400Z,41.88
2017-09-19T05:28:11.628Z,41.60
2017-09-19T05:30:39.124Z,42.70
2017-09-19T05:33:07.371Z,41.42
2017-09-19T05:35:34.872Z,40.65
2017-09-19T05:38:03.106Z,41.40
2017-09-19T05:40:31.347Z,43.83
2017-09-19T05:42:58.827Z,42.80
2017-09-19T05:45:26.295Z,45.35
2017-09-19T05:47:54.009Z,45.97
2017-09-19T05:50:22.243Z,46.67
2017-09-19T05:52:50.491Z,47.75
2017-09-19T05:55:18.069Z,44.80
2017-09-19T05:57:46.342Z,41.17
2017-09-19T06:00:13.817Z,40.35
2017-09-19T06:02:41.429Z,44.58
2017-09-19T06:05:09.150Z,45.95
2017-09-19T06:07:36.629Z,42.50
2017-09-19T06:10:04.138Z,42.45
2017-09-19T06:12:31.606Z,41.03
2017-09-19T06:14:59.093Z,42.80
2017-09-19T06:17:26.557Z,45.80
2017-09-19T06:19:54.789Z,44.80
2017-09-19T06:22:22.271Z,43.30
2017-09-19T06:24:49.753Z,46.40
2017-09-19T06:27:18.003Z,47.88
2017-09-19T06:29:45.502Z,46.05
2017-09-19T06:32:12.964Z,46.75
2017-09-19T06:34:40.454Z,49.92
2017-09-19T06:37:07.930Z,46.90
2017-09-19T06:39:35.419Z,46.53
2017-09-19T06:42:02.907Z,45.22
2017-09-19T06:44:30.386Z,46.42
2017-09-19T06:46:57.846Z,44.15
2017-09-19T06:49:25.338Z,43.92
2017-09-19T06:51:53.570Z,43.05
2017-09-19T06:54:21.057Z,45.10
2017-09-19T06:56:48.553Z,47.03
2017-09-19T06:59:16.039Z,49.42
2017-09-19T07:01:43.543Z,46.55
2017-09-19T07:04:11.833Z,47.30
2017-09-19T07:06:39.323Z,59.13
2017-09-19T07:09:06.818Z,49.25
2017-09-19T07:11:34.289Z,51.65
2017-09-19T07:14:02.587Z,50.45
2017-09-19T07:16:30.071Z,51.60
2017-09-19T07:18:57.551Z,47.25
2017-09-19T07:21:25.041Z,53.05
2017-09-19T07:23:53.310Z,49.30
2017-09-19T07:26:20.787Z,49.80
2017-09-19T07:28:49.044Z,51.95
2017-09-19T07:31:16.545Z,51.17
2017-09-19T07:33:44.080Z,52.60
2017-09-19T07:36:11.569Z,50.90
2017-09-19T07:38:41.822Z,51.72
2017-09-19T07:41:09.318Z,50.83
2017-09-19T07:43:36.800Z,51.72
2017-09-19T07:46:04.322Z,52.22
2017-09-19T07:48:31.803Z,54.58
2017-09-19T07:50:59.285Z,53.17
2017-09-19T07:53:26.765Z,55.00
2017-09-19T07:55:54.254Z,55.20
2017-09-19T07:58:22.502Z,54.97
2017-09-19T08:00:49.994Z,48.75
2017-09-19T08:03:17.465Z,54.10
2017-09-19T08:05:44.974Z,48.00
2017-09-19T08:08:12.429Z,52.38
2017-09-19T08:10:39.921Z,47.88
2017-09-19T08:13:08.152Z,47.08
2017-09-19T08:15:35.641Z,48.47
2017-09-19T08:18:03.114Z,50.50
2017-09-19T08:20:31.365Z,52.10
2017-09-19T08:22:58.841Z,48.05
2017-09-19T08:25:26.326Z,49.20
2017-09-19T08:27:53.803Z,49.83
2017-09-19T08:30:21.290Z,46.35
2017-09-19T08:32:48.757Z,51.40
2017-09-19T08:35:16.241Z,51.37
2017-09-19T08:37:43.726Z,49.33
2017-09-19T08:40:11.229Z,49.40
2017-09-19T08:42:39.471Z,47.53
2017-09-19T08:45:06.950Z,49.67
2017-09-19T08:47:34.413Z,51.40
2017-09-19T08:50:01.907Z,47.00
2017-09-19T08:52:29.384Z,52.50
2017-09-19T08:54:56.863Z,52.62
2017-09-19T08:57:24.349Z,49.25
2017-09-19T08:59:51.818Z,51.70
2017-09-19T09:02:19.335Z,55.63
2017-09-19T09:04:46.800Z,57.05
2017-09-19T09:07:14.285Z,58.10
2017-09-19T09:09:41.797Z,52.15
2017-09-19T09:12:10.118Z,52.80
2017-09-19T09:14:37.577Z,52.85
2017-09-19T09:17:05.966Z,53.65
2017-09-19T09:19:33.449Z,57.72
2017-09-19T09:22:00.931Z,51.58
2017-09-19T09:24:28.402Z,52.58
2017-09-19T09:26:55.909Z,52.15
2017-09-19T09:29:23.381Z,49.85
2017-09-19T09:31:50.952Z,47.20
2017-09-19T09:34:18.433Z,50.22
2017-09-19T09:36:45.902Z,46.42
2017-09-19T09:42:05.158Z,44.55
2017-09-19T09:44:32.679Z,49.13
2017-09-19T09:47:00.142Z,49.10
2017-09-19T09:49:27.619Z,43.50
2017-09-19T09:51:55.085Z,44.38
2017-09-19T09:54:22.582Z,44.95
2017-09-19T10:04:03.312Z,49.10
2017-09-19T10:06:33.805Z,43.50
2017-09-19T10:09:05.191Z,44.33
2017-09-19T10:11:37.238Z,39.03
2017-09-19T10:14:09.256Z,42.53
2017-09-19T10:16:39.919Z,42.85
2017-09-19T10:19:14.222Z,39.70
2017-09-19T10:21:45.178Z,38.25
2017-09-19T10:24:14.166Z,35.42
2017-09-19T10:26:42.600Z,37.20
2017-09-19T10:31:42.561Z,36.17
2017-09-19T10:34:13.277Z,33.67
2017-09-19T10:36:44.346Z,35.15
2017-09-19T10:39:13.218Z,33.40
2017-09-19T10:41:41.741Z,32.30
2017-09-19T10:44:10.299Z,32.85
2017-09-19T10:46:38.868Z,30.70
2017-09-19T10:49:07.396Z,32.50
2017-09-19T10:51:38.364Z,31.42
2017-09-19T10:54:07.116Z,32.65
2017-09-19T10:56:37.184Z,27.05
2017-09-19T10:59:07.043Z,27.90
2017-09-19T11:01:36.966Z,27.23
2017-09-19T11:04:08.058Z,25.85
2017-09-19T11:06:36.642Z,25.73
2017-09-19T11:09:08.945Z,27.55
2017-09-19T11:11:41.162Z,28.20
2017-09-19T11:14:13.005Z,30.88
2017-09-19T11:16:44.202Z,28.52
2017-09-19T11:19:15.624Z,28.65
2017-09-19T11:21:47.258Z,29.70
2017-09-19T11:24:19.138Z,27.15
2017-09-19T11:26:50.137Z,29.50
2017-09-19T11:29:20.492Z,29.12
2017-09-19T11:31:50.935Z,31.10
2017-09-19T11:34:22.731Z,30.20
2017-09-19T11:36:53.170Z,31.42
2017-09-19T11:39:25.721Z,31.62
2017-09-19T11:41:56.358Z,28.27
2017-09-19T11:44:27.288Z,30.92
2017-09-19T11:46:58.695Z,29.35
2017-09-19T11:49:29.744Z,30.00
2017-09-19T11:52:01.254Z,26.33
2017-09-19T11:54:33.314Z,27.30
2017-09-19T11:57:03.746Z,24.95
2017-09-19T11:59:34.279Z,26.15
2017-09-19T12:02:05.180Z,24.17
2017-09-19T12:04:36.391Z,25.67
2017-09-19T12:07:06.683Z,27.73
2017-09-19T12:09:37.129Z,27.80
2017-09-19T12:12:07.519Z,26.77
2017-09-19T12:14:38.081Z,30.77
2017-09-19T12:17:08.695Z,27.23
2017-09-19T12:19:40.076Z,25.35
2017-09-19T12:22:10.432Z,24.90
2017-09-19T12:24:41.987Z,26.67
2017-09-19T12:27:13.165Z,26.40
2017-09-19T12:29:44.564Z,25.67
2017-09-19T12:32:16.098Z,27.80
2017-09-19T12:34:46.697Z,27.35
2017-09-19T12:37:18.763Z,26.45
2017-09-19T12:39:51.805Z,27.85
2017-09-19T12:42:24.099Z,27.30
2017-09-19T12:44:56.336Z,26.17
2017-09-19T12:47:28.508Z,24.50
2017-09-19T12:50:01.800Z,24.33
2017-09-19T12:52:34.659Z,24.98
2017-09-19T12:55:08.725Z,25.30
2017-09-19T12:57:40.779Z,24.40
2017-09-19T13:00:12.921Z,26.73
2017-09-19T13:02:45.397Z,24.10
2017-09-19T13:05:17.599Z,23.83
2017-09-19T13:07:50.193Z,24.25
2017-09-19T13:10:22.498Z,24.33
2017-09-19T13:12:55.687Z,24.77
2017-09-19T13:15:27.795Z,27.17
2017-09-19T13:18:00.216Z,27.25
2017-09-19T13:20:32.622Z,25.62
2017-09-19T13:23:05.031Z,26.20
2017-09-19T13:25:37.499Z,27.92
2017-09-19T13:28:09.764Z,26.73
2017-09-19T13:30:42.843Z,26.60
2017-09-19T13:33:19.563Z,24.63
2017-09-19T13:35:52.186Z,24.15
2017-09-19T13:38:24.480Z,24.80
2017-09-19T13:40:57.521Z,25.33
2017-09-19T13:43:29.914Z,25.35
2017-09-19T13:46:02.231Z,22.55
2017-09-19T13:48:34.549Z,23.35
2017-09-19T13:51:07.911Z,23.80
2017-09-19T13:53:39.854Z,21.83
2017-09-19T13:56:12.127Z,21.70
2017-09-19T13:58:44.242Z,21.90
2017-09-19T14:01:16.693Z,22.05
2017-09-19T14:03:48.861Z,23.98
2017-09-19T14:06:21.545Z,23.65
2017-09-19T14:08:54.885Z,22.40
2017-09-19T14:11:26.977Z,21.17
2017-09-19T14:13:59.560Z,20.67
2017-09-19T14:16:31.661Z,19.80
2017-09-19T14:19:04.169Z,19.13
2017-09-19T14:21:36.758Z,18.63
2017-09-19T14:24:09.594Z,19.83
2017-09-19T14:26:42.189Z,20.43
2017-09-19T14:29:14.774Z,18.80
2017-09-19T14:31:47.677Z,21.60
2017-09-19T14:34:20.000Z,20.70
2017-09-19T14:36:53.342Z,22.10
2017-09-19T14:39:25.899Z,19.00
2017-09-19T14:41:58.577Z,18.50
2017-09-19T14:44:30.864Z,18.60
2017-09-19T14:47:04.286Z,19.37
2017-09-19T14:49:36.203Z,19.90
2017-09-19T14:52:08.554Z,18.90
2017-09-19T14:54:40.780Z,18.97
2017-09-19T14:57:14.127Z,20.90
2017-09-19T14:59:46.367Z,20.83
2017-09-19T15:02:19.184Z,20.50
2017-09-19T15:04:51.265Z,18.53
2017-09-19T15:07:23.515Z,20.70
2017-09-19T15:09:56.622Z,20.80
2017-09-19T15:12:29.053Z,20.33
2017-09-19T15:15:01.670Z,22.27
2017-09-19T15:17:34.025Z,22.50
2017-09-19T15:20:06.727Z,22.05
2017-09-19T15:22:39.733Z,20.90
2017-09-19T15:25:12.226Z,20.88
2017-09-19T15:27:44.764Z,21.50
2017-09-19T15:30:17.144Z,20.60
2017-09-19T15:32:49.473Z,22.05
2017-09-19T15:35:21.726Z,21.85
2017-09-19T15:37:54.508Z,29.80
2017-09-19T15:40:26.957Z,25.58
2017-09-19T15:42:59.332Z,21.10
2017-09-19T15:45:31.692Z,22.65
2017-09-19T15:48:04.022Z,20.65
2017-09-19T15:50:36.368Z,19.55
2017-09-19T15:53:09.003Z,21.30
2017-09-19T15:55:41.088Z,21.52
2017-09-19T15:58:13.855Z,22.80
2017-09-19T16:00:46.179Z,22.15
2017-09-19T16:03:19.004Z,22.80
2017-09-19T16:05:51.835Z,23.95
2017-09-19T16:08:24.591Z,21.70
2017-09-19T16:10:57.051Z,21.62
2017-09-19T16:13:29.810Z,20.80
2017-09-19T16:16:01.954Z,23.17
2017-09-19T16:18:34.730Z,22.55
2017-09-19T16:21:07.030Z,19.73
2017-09-19T16:23:39.207Z,21.33
2017-09-19T16:26:11.492Z,22.55
2017-09-19T16:28:43.607Z,20.77
2017-09-19T16:31:16.070Z,20.80
2017-09-19T16:33:48.592Z,20.70
2017-09-19T16:36:20.803Z,21.02
2017-09-19T16:38:53.098Z,21.60
2017-09-19T16:41:25.391Z,22.58
2017-09-19T16:43:58.041Z,23.87
2017-09-19T16:46:30.701Z,22.77
2017-09-19T16:49:03.129Z,20.83
2017-09-19T16:51:35.836Z,21.75
2017-09-19T16:54:09.252Z,22.17
2017-09-19T16:56:41.683Z,23.15
2017-09-19T16:59:13.808Z,24.95
2017-09-19T17:01:45.932Z,23.30
2017-09-19T17:04:18.128Z,24.48
2017-09-19T17:06:50.317Z,23.95
2017-09-19T17:09:22.414Z,25.92
2017-09-19T17:11:55.034Z,23.92
2017-09-19T17:14:27.586Z,26.48
2017-09-19T17:16:59.662Z,25.65
2017-09-19T17:19:32.011Z,26.25
2017-09-19T17:22:04.595Z,27.98
2017-09-19T17:24:37.409Z,27.27
2017-09-19T17:27:10.419Z,31.73
2017-09-19T17:29:42.732Z,33.42
2017-09-19T17:32:15.224Z,32.00
2017-09-19T17:34:48.268Z,30.60
2017-09-19T17:37:20.713Z,27.58
2017-09-19T17:39:53.024Z,26.62
2017-09-19T17:42:25.673Z,27.62
2017-09-19T17:44:57.560Z,27.23
2017-09-19T17:47:29.661Z,25.60
2017-09-19T17:50:01.699Z,28.60
2017-09-19T17:52:33.951Z,26.75
2017-09-19T17:55:06.525Z,28.23
2017-09-19T17:57:39.005Z,26.45
2017-09-19T18:00:11.824Z,26.58
2017-09-19T18:02:44.079Z,27.85
2017-09-19T18:05:17.245Z,27.55
2017-09-19T18:07:49.396Z,26.95
2017-09-19T18:10:21.867Z,29.50
2017-09-19T18:12:54.485Z,27.87
2017-09-19T18:15:27.732Z,30.35
2017-09-19T18:17:59.706Z,27.77
2017-09-19T18:20:31.994Z,28.17
2017-09-19T18:23:04.354Z,29.48
2017-09-19T18:25:36.935Z,30.75
2017-09-19T18:28:09.188Z,29.45
2017-09-19T18:30:41.779Z,29.40
2017-09-19T18:33:14.734Z,30.58
2017-09-19T18:35:47.841Z,35.90
2017-09-19T18:38:20.165Z,29.08
2017-09-19T18:40:52.300Z,29.25
2017-09-19T18:43:24.638Z,30.62
2017-09-19T18:45:56.770Z,29.75
2017-09-19T18:48:28.914Z,28.25
2017-09-19T18:51:01.043Z,28.42
2017-09-19T18:53:33.763Z,30.35
2017-09-19T18:56:06.438Z,27.35
2017-09-19T18:58:39.016Z,29.77
2017-09-19T19:01:11.801Z,30.77
2017-09-19T19:03:44.285Z,29.33
2017-09-19T19:06:17.015Z,30.50
2017-09-19T19:08:49.431Z,30.60
2017-09-19T19:11:22.099Z,29.45
2017-09-19T19:13:55.230Z,29.80
2017-09-19T19:16:28.555Z,27.67
2017-09-19T19:19:01.106Z,29.10
2017-09-19T19:21:33.436Z,29.42
2017-09-19T19:24:05.603Z,29.27
2017-09-19T19:26:38.367Z,29.80
2017-09-19T19:29:11.817Z,30.30
2017-09-19T19:31:44.079Z,28.95
2017-09-19T19:34:16.631Z,29.60
2017-09-19T19:36:49.805Z,29.95
2017-09-19T19:39:22.224Z,28.75
2017-09-19T19:41:56.006Z,29.27
2017-09-19T19:44:28.891Z,30.70
2017-09-19T19:47:01.271Z,31.42
2017-09-19T19:49:33.459Z,30.42
2017-09-19T19:52:05.699Z,29.20
2017-09-19T19:54:38.408Z,30.10
2017-09-19T19:57:10.769Z,32.40
2017-09-19T19:59:43.100Z,30.25
2017-09-19T20:02:15.483Z,30.40
2017-09-19T20:04:48.261Z,31.12
2017-09-19T20:07:20.902Z,31.50
2017-09-19T20:09:52.967Z,33.15
2017-09-19T20:12:25.803Z,31.73
2017-09-19T20:14:58.466Z,34.72
2017-09-19T20:17:30.696Z,32.88
2017-09-19T20:20:03.534Z,33.40
2017-09-19T20:22:36.519Z,35.55
2017-09-19T20:25:09.177Z,32.65
2017-09-19T20:27:42.139Z,33.35
2017-09-19T20:30:14.949Z,35.97
2017-09-19T20:32:47.752Z,36.10
2017-09-19T20:35:20.391Z,35.40
2017-09-19T20:37:53.534Z,35.97
2017-09-19T20:40:26.564Z,35.13
2017-09-19T20:42:59.322Z,35.50
2017-09-19T20:45:32.323Z,36.08
2017-09-19T20:48:05.234Z,34.00
2017-09-19T20:50:38.206Z,34.17
2017-09-19T20:53:10.961Z,34.08
2017-09-19T20:55:43.999Z,35.15
2017-09-19T20:58:17.036Z,35.38
2017-09-19T21:00:50.724Z,33.92
2017-09-19T21:03:28.935Z,36.30
2017-09-19T21:06:07.767Z,35.78
2017-09-19T21:08:46.518Z,34.50
2017-09-19T21:11:25.325Z,36.42
2017-09-19T21:14:04.953Z,35.08
2017-09-19T21:16:44.242Z,34.80
2017-09-19T21:19:22.768Z,35.65
2017-09-19T21:21:56.132Z,35.28
2017-09-19T21:24:29.049Z,38.05
2017-09-19T21:27:02.118Z,36.88
2017-09-19T21:29:35.452Z,39.83
2017-09-19T21:32:09.115Z,36.58
2017-09-19T21:34:42.201Z,37.55
2017-09-19T21:37:14.928Z,36.78
2017-09-19T21:39:47.797Z,36.00
2017-09-19T21:42:20.362Z,38.65
2017-09-19T21:44:53.382Z,36.83
2017-09-19T21:47:26.596Z,37.28
2017-09-19T21:49:59.296Z,38.53
2017-09-19T21:52:32.168Z,38.53
2017-09-19T21:55:05.534Z,40.83
2017-09-19T21:57:38.521Z,39.22
2017-09-19T22:00:11.565Z,37.25
2017-09-19T22:02:44.278Z,37.38
2017-09-19T22:05:16.645Z,38.30
2017-09-19T22:07:49.217Z,37.90
2017-09-19T22:10:21.788Z,38.45
2017-09-19T22:12:54.209Z,38.78
2017-09-19T22:15:27.211Z,38.75
2017-09-19T22:18:00.069Z,41.33
2017-09-19T22:20:33.038Z,39.17
2017-09-19T22:23:05.358Z,38.72
2017-09-19T22:25:37.855Z,39.55
2017-09-19T22:28:10.576Z,40.42
2017-09-19T22:30:43.425Z,42.03
2017-09-19T22:33:15.949Z,44.17
2017-09-19T22:35:48.497Z,41.67
2017-09-19T22:38:21.392Z,39.00
2017-09-19T22:40:54.269Z,43.05
2017-09-19T22:43:27.086Z,42.10
2017-09-19T22:45:59.709Z,40.97
2017-09-19T22:48:32.537Z,43.00
2017-09-19T22:51:05.527Z,38.17
2017-09-19T22:53:38.153Z,39.60
2017-09-19T22:56:10.964Z,41.83
2017-09-19T22:58:43.441Z,38.70
2017-09-19T23:01:16.575Z,39.95
2017-09-19T23:03:49.202Z,39.67
2017-09-19T23:06:21.572Z,39.40
2017-09-19T23:08:53.822Z,39.85
2017-09-19T23:11:26.740Z,38.78
2017-09-19T23:13:59.307Z,40.20
2017-09-19T23:16:31.851Z,39.92
2017-09-19T23:19:04.309Z,40.53
2017-09-19T23:21:37.118Z,40.63
2017-09-19T23:24:09.635Z,38.63
2017-09-19T23:26:42.440Z,43.08
2017-09-19T23:29:15.057Z,41.28
2017-09-19T23:31:47.673Z,41.10
2017-09-19T23:34:20.157Z,40.75
2017-09-19T23:36:52.955Z,39.97
2017-09-19T23:39:25.550Z,42.20
2017-09-19T23:41:58.744Z,41.35
2017-09-19T23:44:31.720Z,41.22
2017-09-19T23:47:05.038Z,41.22
2017-09-19T23:49:37.359Z,41.05
2017-09-19T23:52:10.317Z,40.72
2017-09-19T23:54:42.898Z,42.85
2017-09-19T23:57:15.722Z,40.47
2017-09-19T23:59:48.393Z,41.83
